Time;durP1;ratioP1;P1;durP2;ratioP2;P2;SDS_P1;SDS_P2;PMS_P1;PMS_P2;Temp;Humidity;BMP_temperature;BMP_pressure;BME280_temperature;BME280_humidity;BME280_pressure;Samples;Min_cycle;Max_cycle;Signal;HPM_P1;HPM_P2
2022/10/05 00:00:18;;;;;;;3.33;3.10;;;11.00;96.70;;;11.11;63.44;95858.09;5029075;28;20488;-57
2022/10/05 00:02:47;;;;;;;6.50;4.00;;;11.00;96.60;;;11.07;63.50;95859.28;5025699;28;21068;-55
2022/10/05 00:05:22;;;;;;;8.10;3.53;;;10.90;97.00;;;11.05;63.68;95861.19;5028649;28;20546;-56
2022/10/05 00:07:49;;;;;;;5.53;3.57;;;10.90;96.90;;;11.02;63.62;95856.16;5024980;28;20852;-57
2022/10/05 00:10:18;;;;;;;4.63;4.07;;;10.90;96.80;;;10.99;63.67;95856.41;5028926;28;20477;-56
2022/10/05 00:12:48;;;;;;;14.33;4.07;;;10.90;96.90;;;10.96;63.76;95856.63;5028311;28;20492;-56
2022/10/05 00:15:17;;;;;;;5.43;3.60;;;10.80;97.00;;;10.93;63.62;95857.69;5027692;28;20476;-55
2022/10/05 00:17:46;;;;;;;11.93;3.87;;;10.80;97.20;;;10.91;64.35;95853.53;5027481;28;20834;-55
2022/10/05 00:20:24;;;;;;;9.43;3.90;;;10.80;97.50;;;10.91;64.42;95856.16;5027777;28;20476;-55
2022/10/05 00:22:56;;;;;;;13.10;3.97;;;10.80;97.50;;;10.88;64.35;95844.06;5028399;28;20452;-53
2022/10/05 00:25:23;;;;;;;5.60;3.87;;;10.80;97.50;;;10.87;64.52;95849.44;5028416;28;20473;-56
2022/10/05 00:27:55;;;;;;;3.60;3.27;;;10.70;97.70;;;10.84;64.59;95847.88;5028441;28;20463;-53
2022/10/05 00:30:23;;;;;;;3.97;3.57;;;10.70;97.80;;;10.83;64.68;95853.25;5028601;28;20473;-55
2022/10/05 00:32:51;;;;;;;5.07;2.70;;;10.70;97.90;;;10.79;64.74;95860.56;5028516;28;21009;-55
2022/10/05 00:35:19;;;;;;;6.80;3.30;;;10.70;97.90;;;10.76;64.68;95848.47;5028182;28;20480;-57
2022/10/05 00:37:47;;;;;;;10.67;3.40;;;10.70;97.90;;;10.75;64.79;95857.34;5027855;28;20455;-54
2022/10/05 00:40:25;;;;;;;6.40;3.57;;;10.60;98.00;;;10.76;64.63;95853.72;5028485;28;20472;-56
2022/10/05 00:42:57;;;;;;;5.87;3.43;;;10.60;97.90;;;10.75;65.08;95854.69;5027415;28;20444;-58
2022/10/05 00:45:26;;;;;;;4.57;3.10;;;10.60;98.40;;;10.74;64.93;95854.81;5027678;28;21066;-54
2022/10/05 00:48:01;;;;;;;3.77;2.83;;;10.60;98.30;;;10.74;64.95;95863.53;5028200;28;20627;-54
2022/10/05 00:50:41;;;;;;;6.40;2.83;;;10.60;98.20;;;10.73;64.90;95866.28;5024849;28;20498;-56
2022/10/05 00:53:15;;;;;;;3.13;2.83;;;10.60;98.30;;;10.70;64.82;95864.72;5027926;28;20531;-57
2022/10/05 00:55:51;;;;;;;3.00;2.90;;;10.60;98.30;;;10.68;64.84;95869.25;5027750;28;20468;-56
2022/10/05 00:58:26;;;;;;;4.33;2.80;;;10.60;98.30;;;10.67;65.01;95872.00;5024778;28;20502;-56
2022/10/05 01:00:59;;;;;;;3.27;3.00;;;10.50;98.40;;;10.64;64.79;95869.59;5026623;28;20482;-56
2022/10/05 01:03:32;;;;;;;3.37;3.17;;;10.50;98.40;;;10.59;64.69;95870.78;5024937;28;20547;-63
2022/10/05 01:06:06;;;;;;;3.37;3.13;;;10.50;98.20;;;10.55;64.92;95874.63;5028377;28;20465;-56
2022/10/05 01:08:43;;;;;;;5.67;3.47;;;10.50;98.30;;;10.54;64.97;95878.19;5027605;28;20451;-56
2022/10/05 01:11:15;;;;;;;4.13;2.90;;;10.40;98.40;;;10.52;65.01;95885.38;5026882;28;20472;-54
2022/10/05 01:13:50;;;;;;;9.97;2.60;;;10.40;98.50;;;10.48;65.02;95886.53;5027388;28;20496;-56
2022/10/05 01:16:22;;;;;;;3.80;3.60;;;10.40;98.50;;;10.45;64.92;95876.25;5023681;28;20440;-56
2022/10/05 01:18:56;;;;;;;3.10;2.90;;;10.40;98.50;;;10.43;65.25;95875.53;5027242;28;20448;-56
2022/10/05 01:21:24;;;;;;;3.40;3.10;;;10.30;98.50;;;10.40;65.30;95881.84;5023477;28;20457;-55
2022/10/05 01:24:44;;;;;;;8.70;3.23;;;10.30;98.60;;;10.40;65.47;95887.09;5027065;28;20465;-54
2022/10/05 01:27:32;;;;;;;3.67;3.47;;;10.30;98.70;;;10.36;65.74;95896.19;5023077;28;20464;-57
2022/10/05 01:30:02;;;;;;;3.97;3.50;;;10.30;98.80;;;10.34;65.18;95897.25;5028826;28;20483;-55
2022/10/05 01:32:32;;;;;;;3.13;2.90;;;10.20;98.60;;;10.32;65.35;95894.69;5021060;28;20472;-56
2022/10/05 01:35:06;;;;;;;3.10;2.90;;;10.20;98.70;;;10.30;65.34;95907.13;5027442;28;20477;-56
2022/10/05 01:37:40;;;;;;;5.50;3.33;;;10.20;98.80;;;10.27;65.42;95904.72;5023038;28;20454;-56
2022/10/05 01:40:11;;;;;;;4.63;3.73;;;10.20;98.80;;;10.25;65.20;95905.78;5027166;28;20533;-55
2022/10/05 01:42:48;;;;;;;4.93;3.90;;;10.20;98.80;;;10.22;65.30;95906.84;5025789;28;20452;-53
2022/10/05 01:45:20;;;;;;;10.43;3.50;;;10.10;98.70;;;10.19;65.30;95920.19;5027357;28;20479;-58
2022/10/05 01:47:49;;;;;;;16.23;3.90;;;10.10;98.90;;;10.16;65.18;95925.69;5023495;28;20448;-57
2022/10/05 01:50:24;;;;;;;6.63;4.57;;;10.10;98.80;;;10.12;65.29;95925.06;5026428;28;20487;-56
2022/10/05 01:53:00;;;;;;;8.00;4.03;;;10.00;98.80;;;10.10;65.55;95939.28;5022583;28;21044;-55
2022/10/05 01:55:33;;;;;;;5.63;4.23;;;10.00;98.90;;;10.05;65.66;95929.94;5026470;28;20526;-56
2022/10/05 01:58:16;;;;;;;4.73;4.10;;;10.00;99.10;;;10.00;65.58;95928.59;5023626;28;20448;-56
2022/10/05 02:00:49;;;;;;;4.80;3.60;;;9.90;99.70;;;9.89;65.84;95929.34;5025366;28;20511;-56
2022/10/05 02:03:18;;;;;;;4.43;4.07;;;9.90;99.50;;;9.86;65.92;95934.81;5026398;28;20441;-53
2022/10/05 02:05:50;;;;;;;6.20;4.07;;;9.80;99.80;;;9.83;66.52;95929.78;5026300;28;20468;-56
2022/10/05 02:08:22;;;;;;;4.67;4.27;;;9.80;99.90;;;9.77;65.84;95932.84;5026277;28;20965;-54
2022/10/05 02:10:52;;;;;;;4.93;4.53;;;9.70;99.80;;;9.75;66.26;95926.88;5026170;28;21043;-55
2022/10/05 02:13:25;;;;;;;10.70;4.53;;;9.70;99.90;;;9.69;66.49;95939.47;5026245;28;20484;-56
2022/10/05 02:15:55;;;;;;;5.17;4.67;;;9.70;99.90;;;9.67;66.13;95930.03;5026837;28;20912;-56
2022/10/05 02:18:25;;;;;;;7.77;4.83;;;9.60;99.90;;;9.65;66.31;95942.41;5025740;28;20514;-56
2022/10/05 02:20:52;;;;;;;6.10;4.10;;;9.60;99.90;;;9.65;66.79;95937.16;5025787;28;20473;-56
2022/10/05 02:23:22;;;;;;;5.50;5.00;;;9.60;99.90;;;9.64;67.02;95938.97;5025475;28;20986;-55
2022/10/05 02:25:51;;;;;;;5.27;4.23;;;9.60;99.90;;;9.64;66.98;95946.84;5026520;28;20488;-60
2022/10/05 02:28:22;;;;;;;4.90;4.40;;;9.50;99.90;;;9.64;66.79;95946.03;5025494;28;20448;-54
2022/10/05 02:30:52;;;;;;;4.03;3.73;;;9.60;99.90;;;9.64;66.88;95936.34;5022797;28;20571;-55
2022/10/05 02:33:23;;;;;;;7.60;4.13;;;9.60;99.90;;;9.62;66.66;95938.25;5026043;28;20484;-56
2022/10/05 02:35:51;;;;;;;5.43;4.30;;;9.50;99.90;;;9.62;67.08;95938.25;5022619;28;20472;-56
2022/10/05 02:38:26;;;;;;;4.90;4.53;;;9.50;99.90;;;9.62;67.22;95933.00;5026224;28;20449;-54
2022/10/05 02:40:58;;;;;;;6.27;4.77;;;9.50;99.90;;;9.62;67.10;95934.75;5025356;28;20472;-57
2022/10/05 02:43:33;;;;;;;7.60;4.87;;;9.50;99.90;;;9.59;66.83;95935.84;5025978;28;20531;-58
2022/10/05 02:46:05;;;;;;;9.50;5.27;;;9.50;99.90;;;9.58;67.09;95936.78;5025805;28;20472;-54
2022/10/05 02:48:40;;;;;;;10.60;4.90;;;9.50;99.90;;;9.55;67.39;95939.59;5025569;28;20448;-55
2022/10/05 02:51:15;;;;;;;9.73;4.03;;;9.50;99.90;;;9.55;67.59;95942.25;5021752;28;20992;-56
2022/10/05 02:53:46;;;;;;;4.83;4.43;;;9.50;99.90;;;9.54;67.01;95939.72;5025809;28;20567;-53
2022/10/05 02:56:20;;;;;;;6.00;5.40;;;9.50;99.90;;;9.54;67.52;95950.22;5022533;28;20480;-55
2022/10/05 02:58:56;;;;;;;7.13;4.50;;;9.50;99.90;;;9.52;67.19;95945.06;5025460;28;20453;-56
2022/10/05 03:01:25;;;;;;;6.13;4.90;;;9.50;99.90;;;9.53;67.64;95949.41;5022359;28;20459;-53
2022/10/05 03:03:58;;;;;;;5.10;4.13;;;9.40;99.90;;;9.53;67.47;95946.75;5026160;28;20453;-55
2022/10/05 03:06:27;;;;;;;10.63;5.17;;;9.40;99.90;;;9.50;67.31;95946.97;5022307;28;20453;-57
2022/10/05 03:09:00;;;;;;;4.87;4.47;;;9.40;99.90;;;9.49;67.54;95953.16;5023687;28;20464;-55
2022/10/05 03:11:32;;;;;;;4.50;4.10;;;9.40;99.90;;;9.47;67.78;95945.41;5025652;28;20614;-53
2022/10/05 03:14:06;;;;;;;5.13;4.70;;;9.40;99.90;;;9.45;67.87;95949.06;5025136;28;20476;-56
2022/10/05 03:16:41;;;;;;;4.93;4.53;;;9.40;99.90;;;9.41;67.82;95947.63;5025710;28;20447;-57
2022/10/05 03:19:22;;;;;;;9.93;5.10;;;9.40;99.90;;;9.40;67.52;95954.63;5025597;28;20492;-55
2022/10/05 03:21:56;;;;;;;16.33;4.67;;;9.30;99.90;;;9.39;68.01;95952.97;5024575;28;20461;-57
2022/10/05 03:24:44;;;;;;;5.03;4.63;;;9.30;99.90;;;9.39;68.40;95950.34;5024832;28;20488;-55
2022/10/05 03:27:22;;;;;;;6.63;5.47;;;9.30;99.90;;;9.41;67.97;95960.75;5025473;28;20452;-55
2022/10/05 03:29:54;;;;;;;8.13;5.23;;;9.30;99.90;;;9.39;67.99;95963.47;5025357;28;20476;-55
2022/10/05 03:32:27;;;;;;;6.10;5.13;;;9.30;99.90;;;9.40;67.89;95965.13;5022214;28;20514;-56
2022/10/05 03:34:57;;;;;;;10.43;6.30;;;9.30;99.90;;;9.41;67.62;95974.69;5024156;28;20509;-57
2022/10/05 03:37:28;;;;;;;6.27;4.00;;;9.30;99.90;;;9.40;67.90;95980.06;5021752;28;20515;-56
2022/10/05 03:40:00;;;;;;;5.90;4.10;;;9.30;99.90;;;9.38;67.87;95982.78;5025537;28;20917;-56
2022/10/05 03:42:32;;;;;;;4.03;3.63;;;9.30;99.90;;;9.38;67.91;95977.53;5025028;28;20988;-55
2022/10/05 03:45:03;;;;;;;10.00;4.00;;;9.30;99.90;;;9.36;67.62;95989.06;5025237;28;20480;-55
2022/10/05 03:47:36;;;;;;;5.00;4.03;;;9.30;99.90;;;9.35;68.14;95990.03;5024545;28;20455;-58
2022/10/05 03:50:25;;;;;;;7.03;3.70;;;9.30;99.90;;;9.35;67.88;95992.66;5025325;28;20465;-53
2022/10/05 03:52:56;;;;;;;11.87;3.67;;;9.30;99.90;;;9.29;67.64;95989.50;5026814;28;20460;-56
2022/10/05 03:55:28;;;;;;;4.27;3.73;;;9.30;99.90;;;9.18;67.79;95997.25;5028905;28;20549;-56
2022/10/05 03:57:58;;;;;;;6.50;4.40;;;9.20;99.90;;;9.06;67.77;95998.09;5028746;28;20972;-56
2022/10/05 04:00:26;;;;;;;5.03;4.53;;;9.10;99.90;;;9.01;67.98;96000.19;5027918;28;20542;-56
2022/10/05 04:02:57;;;;;;;4.60;3.77;;;9.00;99.90;;;8.96;68.22;95996.06;5028938;28;20452;-56
2022/10/05 04:05:27;;;;;;;12.93;6.17;;;9.00;99.90;;;8.95;68.26;96001.44;5028347;28;20692;-55
2022/10/05 04:07:57;;;;;;;8.73;4.10;;;8.90;99.90;;;8.89;68.19;96005.31;5025506;28;20459;-55
2022/10/05 04:10:26;;;;;;;6.43;4.47;;;8.90;99.90;;;8.81;68.15;96004.97;5025681;28;21680;-56
2022/10/05 04:12:55;;;;;;;6.60;5.60;;;8.80;99.90;;;8.74;68.76;96009.78;5028221;28;20456;-56
2022/10/05 04:15:29;;;;;;;9.10;4.80;;;8.80;99.90;;;8.71;69.23;96014.41;5027967;28;20496;-56
2022/10/05 04:17:59;;;;;;;10.13;4.70;;;8.70;99.90;;;8.71;69.22;96019.63;5028115;28;20468;-54
2022/10/05 04:20:30;;;;;;;8.13;4.50;;;8.70;99.90;;;8.72;68.86;96014.28;5026769;28;20472;-54
2022/10/05 04:23:05;;;;;;;4.20;3.90;;;8.70;99.90;;;8.74;69.09;96019.44;5027818;28;20464;-55
2022/10/05 04:25:35;;;;;;;5.63;5.17;;;8.70;99.90;;;8.75;69.18;96021.09;5024372;28;20992;-56
2022/10/05 04:28:16;;;;;;;7.67;4.40;;;8.70;99.90;;;8.77;68.83;96011.38;5027632;28;20452;-57
2022/10/05 04:30:47;;;;;;;14.27;4.97;;;8.70;99.90;;;8.77;68.73;96024.50;5025732;28;20469;-55
2022/10/05 04:33:14;;;;;;;12.17;5.60;;;8.70;99.90;;;8.77;69.18;96027.94;5026577;28;20863;-54
2022/10/05 04:36:06;;;;;;;10.37;4.90;;;8.70;99.90;;;8.78;69.10;96027.00;5028528;28;20468;-54
2022/10/05 04:38:48;;;;;;;15.93;6.50;;;8.70;99.90;;;8.79;69.44;96027.84;5027270;28;20507;-55
2022/10/05 04:41:43;;;;;;;15.27;5.03;;;8.80;99.90;;;8.84;68.78;96036.25;5024774;28;20449;-58
2022/10/05 04:44:28;;;;;;;5.70;5.07;;;8.80;99.90;;;8.86;68.98;96041.38;5027914;28;20522;-55
2022/10/05 04:47:16;;;;;;;7.00;4.70;;;8.80;99.90;;;8.87;69.15;96043.09;5025229;28;20453;-56
2022/10/05 04:50:13;;;;;;;7.63;4.70;;;8.80;99.90;;;8.89;69.16;96049.91;5025223;28;20867;-55
2022/10/05 04:52:48;;;;;;;7.83;5.90;;;8.80;99.90;;;8.93;69.03;96040.88;5017081;28;20988;-55
2022/10/05 04:55:22;;;;;;;14.53;5.73;;;8.90;99.90;;;8.97;69.30;96046.78;5027971;28;21186;-56
2022/10/05 04:57:53;;;;;;;14.00;6.00;;;8.90;99.90;;;9.02;68.84;96049.94;5027923;28;20862;-58
2022/10/05 05:00:22;;;;;;;21.63;7.40;;;8.90;99.90;;;9.08;68.80;96046.09;5027631;28;21032;-57
2022/10/05 05:03:24;;;;;;;15.93;7.63;;;9.00;99.90;;;9.14;69.26;96035.19;5026913;28;20825;-56
2022/10/05 05:05:57;;;;;;;18.67;8.30;;;9.10;99.90;;;9.19;68.75;96035.72;5024353;28;20472;-56
2022/10/05 05:08:37;;;;;;;27.87;7.20;;;9.10;99.90;;;9.24;68.10;96038.84;5026713;28;20455;-57
2022/10/05 05:11:15;;;;;;;13.43;7.63;;;9.20;99.90;;;9.25;68.56;96040.53;5025555;28;20475;-55
2022/10/05 05:14:21;;;;;;;24.13;6.93;;;9.20;99.90;;;9.27;68.94;96043.91;5026043;28;20487;-55
2022/10/05 05:16:51;;;;;;;17.57;7.67;;;9.20;99.90;;;9.32;68.69;96047.03;5024299;28;20748;-55
2022/10/05 05:19:36;;;;;;;16.70;8.90;;;9.20;99.90;;;9.38;68.17;96045.81;5025053;28;20464;-54
2022/10/05 05:22:06;;;;;;;19.67;7.80;;;9.30;99.90;;;9.40;68.38;96050.94;5023939;28;20864;-56
2022/10/05 05:24:41;;;;;;;20.37;8.03;;;9.30;99.90;;;9.40;68.42;96054.41;5026562;28;20484;-56
2022/10/05 05:27:26;;;;;;;24.80;7.57;;;9.30;99.90;;;9.43;68.07;96056.00;5024398;28;20828;-56
2022/10/05 05:30:01;;;;;;;20.10;8.30;;;9.40;99.90;;;9.45;68.05;96051.47;5026915;28;20473;-56
2022/10/05 05:32:37;;;;;;;17.80;7.70;;;9.40;99.90;;;9.46;67.94;96054.00;5025867;28;20635;-53
2022/10/05 05:35:29;;;;;;;19.77;6.97;;;9.40;99.90;;;9.49;68.45;96058.22;5025886;28;21094;-54
2022/10/05 05:38:02;;;;;;;27.40;6.53;;;9.50;99.90;;;9.56;68.41;96048.97;5026266;28;20453;-55
2022/10/05 05:40:33;;;;;;;11.43;5.93;;;9.50;99.90;;;9.66;68.54;96060.53;5023638;28;20475;-54
2022/10/05 05:43:03;;;;;;;16.17;6.07;;;9.60;99.90;;;9.82;68.47;96064.72;5025068;28;20953;-55
2022/10/05 05:45:43;;;;;;;19.43;7.10;;;9.70;99.90;;;10.02;68.04;96058.09;5022467;28;20465;-57
2022/10/05 05:48:16;;;;;;;14.23;6.27;;;9.80;99.90;;;10.28;68.00;96065.94;5025906;28;20456;-56
2022/10/05 05:50:49;;;;;;;14.60;7.70;;;10.10;99.90;;;10.62;67.12;96074.94;5026059;28;20476;-55
2022/10/05 05:53:20;;;;;;;12.67;6.77;;;10.40;99.90;;;10.97;66.88;96068.91;5026292;28;20452;-54
2022/10/05 05:55:50;;;;;;;14.20;8.83;;;10.70;99.90;;;11.37;66.27;96087.03;5025924;28;20852;-56
2022/10/05 05:58:22;;;;;;;13.03;8.83;;;11.00;99.90;;;11.76;65.51;96079.69;5025947;28;20469;-57
2022/10/05 06:00:52;;;;;;;27.03;8.97;;;11.40;99.90;;;12.14;64.57;96075.91;5022701;28;20481;-55
2022/10/05 06:03:22;;;;;;;17.80;11.00;;;11.80;99.90;;;12.52;63.62;96074.72;5025926;28;20838;-55
2022/10/05 06:05:54;;;;;;;20.50;10.03;;;12.20;99.60;;;12.89;62.67;96071.75;5026226;28;20500;-56
2022/10/05 06:08:26;;;;;;;33.73;10.60;;;12.50;98.90;;;13.24;61.69;96073.31;5025695;28;20518;-55
2022/10/05 06:10:56;;;;;;;17.53;9.83;;;12.90;98.30;;;13.58;60.83;96078.47;5027446;28;20472;-55
2022/10/05 06:13:27;;;;;;;19.10;10.30;;;13.20;97.70;;;13.93;60.04;96077.31;5025475;28;20479;-56
2022/10/05 06:15:56;;;;;;;19.77;9.80;;;13.60;97.20;;;14.30;59.46;96090.03;5024941;28;20497;-56
2022/10/05 06:18:23;;;;;;;16.87;9.77;;;13.90;96.70;;;14.66;58.46;96085.16;5023348;28;20452;-55
2022/10/05 06:20:57;;;;;;;13.67;10.10;;;14.30;96.00;;;15.02;57.73;96096.09;5025766;28;20464;-57
2022/10/05 06:23:30;;;;;;;19.43;9.43;;;14.60;95.50;;;15.42;57.07;96103.13;5025661;28;20476;-56
2022/10/05 06:26:23;;;;;;;24.17;8.17;;;15.00;95.00;;;15.89;55.89;96104.25;5026263;28;20531;-56
2022/10/05 06:28:53;;;;;;;27.03;8.30;;;15.40;94.50;;;16.33;55.18;96103.69;5024951;28;20449;-55
2022/10/05 06:31:34;;;;;;;13.70;7.87;;;15.80;93.60;;;16.75;53.94;96117.38;5023052;28;20463;-55
2022/10/05 06:34:06;;;;;;;11.63;7.80;;;16.20;92.90;;;17.13;53.58;96120.81;5025138;28;20469;-55
2022/10/05 06:36:41;;;;;;;9.13;6.80;;;16.60;92.20;;;17.49;52.59;96126.19;5022891;28;20776;-56
2022/10/05 06:39:36;;;;;;;16.23;7.77;;;17.00;91.20;;;17.90;51.54;96123.06;5025507;28;20444;-55
2022/10/05 06:42:25;;;;;;;19.93;7.40;;;17.40;91.00;;;18.33;51.53;96133.88;5022636;28;20448;-55
2022/10/05 06:44:56;;;;;;;24.50;7.57;;;17.80;90.10;;;18.75;50.74;96127.78;5023242;28;20492;-54
2022/10/05 06:47:28;;;;;;;19.20;7.50;;;18.20;88.70;;;19.17;49.98;96137.63;5025037;28;20475;-55
2022/10/05 06:50:02;;;;;;;18.70;6.90;;;18.60;87.60;;;19.59;49.72;96139.38;5025494;28;20476;-55
2022/10/05 06:52:38;;;;;;;22.40;7.30;;;19.10;86.60;;;20.05;48.49;96137.09;5025733;28;20445;-56
2022/10/05 06:55:15;;;;;;;12.40;7.00;;;19.50;84.70;;;20.55;48.06;96137.84;5025230;28;20524;-56
2022/10/05 06:58:01;;;;;;;13.60;7.47;;;19.90;82.70;;;21.05;45.20;96133.22;5022413;28;20524;-56
2022/10/05 07:00:33;;;;;;;9.57;6.10;;;20.40;77.50;;;21.54;47.05;96142.03;5023265;28;20529;-57
2022/10/05 07:03:05;;;;;;;26.53;6.37;;;20.90;80.30;;;22.03;46.85;96137.16;5026579;28;20445;-56
2022/10/05 07:05:45;;;;;;;10.17;6.10;;;21.40;79.80;;;22.55;44.83;96130.16;5025289;28;20480;-54
2022/10/05 07:08:17;;;;;;;8.90;4.67;;;21.90;77.20;;;22.94;45.40;96125.53;5025281;28;20452;-54
2022/10/05 07:10:56;;;;;;;13.80;5.67;;;22.30;75.70;;;23.35;44.60;96132.28;5025740;28;20468;-55
2022/10/05 07:13:55;;;;;;;12.30;4.47;;;22.70;75.30;;;23.92;43.88;96126.09;5022675;28;20547;-55
2022/10/05 07:16:30;;;;;;;3.50;3.20;;;23.20;72.80;;;24.49;43.58;96126.97;5022991;28;20478;-55
2022/10/05 07:19:09;;;;;;;9.83;3.50;;;23.90;70.80;;;25.03;42.08;96130.81;5022034;28;20456;-56
2022/10/05 07:21:41;;;;;;;3.10;2.67;;;24.50;69.20;;;25.56;42.02;96134.78;5024887;28;20487;-56
2022/10/05 07:24:23;;;;;;;7.73;4.10;;;25.10;66.50;;;26.03;40.69;96130.34;5022116;28;20448;-56
2022/10/05 07:26:54;;;;;;;7.63;3.73;;;25.60;64.30;;;26.40;40.49;96132.63;5024200;28;20861;-53
2022/10/05 07:29:23;;;;;;;4.13;3.40;;;26.10;61.90;;;26.74;39.45;96128.03;5029553;28;20483;-57
2022/10/05 07:31:58;;;;;;;9.30;4.60;;;26.50;59.90;;;27.07;38.62;96113.66;5028741;28;20459;-54
2022/10/05 07:34:34;;;;;;;9.90;4.00;;;26.90;58.70;;;27.32;38.03;96117.31;5028838;28;20526;-57
2022/10/05 07:39:57;;;;;;;5.73;3.27;;;27.50;55.90;;;27.89;36.89;96117.41;5025484;28;20535;-57
2022/10/05 07:42:34;;;;;;;5.63;3.20;;;27.90;55.00;;;28.15;36.10;96118.31;5028544;28;20443;-56
2022/10/05 07:45:08;;;;;;;2.40;2.30;;;28.10;53.40;;;28.32;35.74;96120.44;5026446;28;20474;-56
2022/10/05 07:47:39;;;;;;;2.70;2.50;;;28.30;53.10;;;28.49;36.15;96128.84;5028257;28;20948;-55
2022/10/05 07:50:12;;;;;;;5.90;3.03;;;28.40;52.60;;;28.65;35.90;96112.06;5028774;28;20472;-57
2022/10/05 07:52:41;;;;;;;6.23;3.33;;;28.50;52.00;;;28.85;34.81;96121.88;5028198;28;20440;-56
2022/10/05 07:55:17;;;;;;;6.53;2.80;;;28.70;51.40;;;29.06;34.31;96128.72;5028232;28;21011;-54
2022/10/05 07:57:49;;;;;;;5.00;2.73;;;28.80;50.60;;;29.25;33.95;96129.56;5028456;28;20857;-56
2022/10/05 08:00:19;;;;;;;2.40;2.20;;;29.00;50.20;;;29.37;34.02;96125.03;5028257;28;20496;-57
2022/10/05 08:02:49;;;;;;;2.60;2.40;;;29.10;49.30;;;29.35;33.37;96121.72;5028088;28;20973;-56
2022/10/05 08:05:22;;;;;;;3.73;2.40;;;29.00;48.90;;;28.89;32.57;96134.75;5024898;28;20464;-56
2022/10/05 08:07:51;;;;;;;2.57;2.17;;;28.80;47.80;;;28.33;33.01;96141.88;5028305;28;20502;-56
2022/10/05 08:10:30;;;;;;;14.13;1.80;;;28.40;47.60;;;28.23;33.98;96139.66;5026090;28;20472;-55
2022/10/05 08:13:07;;;;;;;5.37;2.00;;;28.10;47.90;;;28.36;33.15;96141.44;5028194;28;20448;-55
2022/10/05 08:15:38;;;;;;;3.00;1.97;;;28.10;47.70;;;28.58;32.75;96138.31;5025574;28;20930;-55
2022/10/05 08:18:11;;;;;;;2.53;2.30;;;28.20;47.80;;;28.74;32.17;96134.28;5027793;28;20518;-54
2022/10/05 08:20:41;;;;;;;4.00;2.30;;;28.30;47.40;;;28.90;32.28;96139.09;5028138;28;20506;-57
2022/10/05 08:23:19;;;;;;;2.03;1.90;;;28.50;47.10;;;29.05;31.64;96136.03;5027477;28;20464;-56
2022/10/05 08:25:55;;;;;;;3.27;2.37;;;28.60;46.50;;;29.13;31.48;96130.28;5028000;28;20484;-57
2022/10/05 08:28:25;;;;;;;4.10;2.23;;;28.60;46.40;;;29.15;30.97;96155.28;5024551;28;20450;-56
2022/10/05 08:30:59;;;;;;;4.30;2.17;;;28.60;44.30;;;28.94;32.04;96137.59;5028033;28;20526;-53
2022/10/05 08:33:27;;;;;;;3.97;2.17;;;28.50;45.60;;;28.85;31.87;96147.06;5023175;28;20443;-55
2022/10/05 08:36:02;;;;;;;2.30;2.10;;;28.50;45.70;;;28.89;31.49;96148.28;5027256;28;20500;-56
2022/10/05 08:38:32;;;;;;;9.00;2.50;;;28.40;45.60;;;29.04;31.36;96138.97;5027728;28;20450;-55
2022/10/05 08:41:51;;;;;;;3.57;2.10;;;28.50;45.50;;;29.25;30.51;96143.09;5028119;28;21099;-56
2022/10/05 08:45:09;;;;;;;3.27;2.10;;;28.70;44.50;;;29.28;30.75;96135.38;5025889;28;20476;-56
2022/10/05 08:48:01;;;;;;;3.30;1.83;;;28.80;44.40;;;29.39;30.99;96127.50;5022099;28;20460;-55
2022/10/05 08:50:57;;;;;;;2.13;1.73;;;28.90;44.40;;;29.59;30.69;96127.25;5026896;28;20460;-55
2022/10/05 08:53:37;;;;;;;2.80;1.93;;;29.00;44.50;;;29.81;30.60;96133.06;4984522;28;20456;-56
2022/10/05 08:56:30;;;;;;;4.80;2.10;;;29.20;43.90;;;29.94;29.60;96132.03;5027552;28;20921;-56
2022/10/05 08:59:57;;;;;;;2.60;2.23;;;29.40;43.40;;;30.09;29.84;96128.88;5025378;28;20538;-57
2022/10/05 09:02:31;;;;;;;5.90;2.80;;;29.50;43.30;;;30.20;29.11;96130.78;4920510;28;20463;-56
2022/10/05 09:05:17;;;;;;;3.33;2.73;;;29.60;42.60;;;30.17;29.67;96131.25;5023531;28;20475;-55
2022/10/05 09:08:09;;;;;;;6.17;1.83;;;29.70;42.80;;;30.19;29.32;96126.41;5024741;28;20526;-56
2022/10/05 09:11:03;;;;;;;4.23;2.60;;;29.70;42.50;;;30.26;28.26;96131.75;5024779;28;21064;-56
2022/10/05 09:14:14;;;;;;;2.47;1.73;;;29.70;42.40;;;30.29;28.54;96132.09;5025694;28;20510;-56
2022/10/05 09:17:06;;;;;;;4.50;1.87;;;29.80;42.20;;;30.31;28.44;96129.16;5027532;28;20897;-56
2022/10/05 09:20:10;;;;;;;4.37;2.13;;;29.80;41.70;;;30.14;28.73;96132.53;5027317;28;20492;-55
2022/10/05 09:22:58;;;;;;;4.50;1.90;;;29.70;41.70;;;30.09;28.88;96139.75;5027182;28;20455;-56
2022/10/05 09:25:38;;;;;;;6.20;1.70;;;29.60;41.70;;;30.08;28.47;96135.38;5024851;28;20468;-54
2022/10/05 09:28:23;;;;;;;3.00;1.90;;;29.60;41.90;;;30.07;28.18;96136.41;5025233;28;20444;-56
2022/10/05 09:31:28;;;;;;;2.07;1.93;;;29.60;41.10;;;29.79;27.24;96126.97;5023250;28;20475;-58
2022/10/05 09:34:31;;;;;;;3.27;1.50;;;29.40;40.10;;;29.37;28.50;96125.03;5025878;28;20463;-55
2022/10/05 09:37:41;;;;;;;1.40;1.30;;;29.10;40.50;;;29.20;27.44;96124.81;5023966;28;20479;-57
2022/10/05 09:40:53;;;;;;;2.77;1.60;;;28.90;39.50;;;28.72;28.28;96123.66;5023682;28;20476;-53
2022/10/05 09:43:51;;;;;;;2.60;1.70;;;28.50;40.40;;;28.63;28.71;96122.28;5000405;28;20506;-56
2022/10/05 09:46:55;;;;;;;1.83;1.67;;;28.10;41.20;;;28.70;28.07;96125.75;5025037;28;20448;-56
2022/10/05 09:50:05;;;;;;;2.90;1.40;;;28.10;40.30;;;28.55;28.79;96117.97;5023299;28;20534;-58
2022/10/05 09:53:12;;;;;;;4.53;1.50;;;28.10;40.80;;;28.51;28.13;96127.56;5028061;28;20530;-56
2022/10/05 09:56:14;;;;;;;2.03;1.40;;;28.00;39.30;;;28.19;27.53;96138.44;5025982;28;20502;-56
2022/10/05 09:59:28;;;;;;;3.00;1.70;;;27.80;39.00;;;27.72;27.67;96121.69;5023695;28;20467;-57
2022/10/05 10:02:17;;;;;;;2.70;1.33;;;27.40;39.70;;;27.45;28.50;96127.25;5023245;28;20452;-57
2022/10/05 10:05:04;;;;;;;3.40;1.70;;;27.00;39.90;;;27.13;29.14;96116.31;5024371;28;20464;-55
2022/10/05 10:07:52;;;;;;;1.70;1.60;;;26.70;40.50;;;26.99;29.11;96120.13;5024313;28;20927;-55
2022/10/05 10:11:06;;;;;;;2.10;1.37;;;26.50;41.10;;;27.17;28.65;96122.97;5024908;28;20574;-55
2022/10/05 10:14:01;;;;;;;2.40;1.70;;;26.60;41.10;;;27.35;28.87;96121.47;5022422;28;20518;-55
2022/10/05 10:16:39;;;;;;;1.50;1.40;;;26.80;40.90;;;27.44;28.56;96122.06;5021764;28;20499;-56
2022/10/05 10:19:35;;;;;;;4.30;1.37;;;26.90;40.90;;;27.25;28.77;96121.03;5024325;28;20448;-55
2022/10/05 10:22:15;;;;;;;1.40;1.30;;;26.80;40.80;;;27.16;28.59;96115.88;5014489;28;20456;-56
2022/10/05 10:25:10;;;;;;;3.50;1.40;;;26.70;40.10;;;26.83;28.96;96115.97;5026217;28;20490;-58
2022/10/05 10:28:08;;;;;;;3.20;1.53;;;26.50;40.60;;;26.48;29.15;96117.06;5025375;28;20448;-56
2022/10/05 10:31:11;;;;;;;2.20;1.20;;;26.10;40.70;;;26.14;29.35;96120.81;4994132;28;20511;-56
2022/10/05 10:34:23;;;;;;;1.97;1.80;;;25.80;41.10;;;25.81;30.00;96107.25;5025074;28;20484;-55
2022/10/05 10:37:09;;;;;;;1.50;1.10;;;25.60;41.40;;;25.69;29.78;96109.75;5005789;28;20976;-57
2022/10/05 10:39:48;;;;;;;2.67;1.70;;;25.30;42.20;;;25.74;30.59;96101.88;5025350;28;20480;-57
2022/10/05 10:42:27;;;;;;;6.40;1.50;;;25.20;42.10;;;25.88;30.74;96097.31;5025387;28;20448;-56
2022/10/05 10:45:28;;;;;;;3.17;1.53;;;25.30;42.70;;;25.88;29.95;96095.44;5022513;28;20893;-57
2022/10/05 10:48:03;;;;;;;10.43;1.80;;;25.40;42.30;;;25.73;30.37;96095.66;5024340;28;20456;-54
2022/10/05 10:51:08;;;;;;;1.67;1.53;;;25.30;42.20;;;25.70;30.93;96093.38;5022523;28;20610;-58
2022/10/05 10:54:16;;;;;;;1.47;1.37;;;25.20;42.10;;;25.90;30.48;96082.63;5021981;28;20440;-58
2022/10/05 10:56:55;;;;;;;3.30;1.30;;;25.30;42.90;;;25.99;30.33;96091.34;5024201;28;20483;-55
2022/10/05 11:00:05;;;;;;;3.70;1.50;;;25.40;42.30;;;26.11;29.70;96089.69;5023536;28;20591;-55
2022/10/05 11:03:07;;;;;;;1.83;1.50;;;25.50;42.30;;;26.24;30.10;96088.03;5022662;28;20448;-56
2022/10/05 11:06:31;;;;;;;3.93;1.73;;;25.60;42.40;;;26.08;29.66;96065.84;5025079;28;20464;-55
2022/10/05 11:09:22;;;;;;;7.70;1.43;;;25.60;42.00;;;25.90;30.05;96068.28;4995464;28;20452;-56
2022/10/05 11:12:46;;;;;;;1.97;1.33;;;25.40;41.40;;;25.57;29.75;96056.44;5022322;28;20870;-56
2022/10/05 11:15:45;;;;;;;2.67;1.37;;;25.20;41.50;;;25.49;29.66;96062.03;4987537;28;21083;-55